Time;durP1;ratioP1;P1;durP2;ratioP2;P2;SDS_P1;SDS_P2;PMS_P1;PMS_P2;Temp;Humidity;BMP_temperature;BMP_pressure;BME280_temperature;BME280_humidity;BME280_pressure;Samples;Min_cycle;Max_cycle;Signal;HPM_P1;HPM_P2
2023/08/13 00:02:22;;;;;;;;;;;;;;;;;;5073330;28;19921;-75
2023/08/13 00:04:48;;;;;;;;;;;;;;;;;;5055363;28;19983;-75
2023/08/13 00:07:14;;;;;;;;;;;;;;;;;;5055346;28;20019;-75
2023/08/13 00:09:40;;;;;;;;;;;;;;;;;;5038584;28;20281;-75
2023/08/13 00:12:06;;;;;;;;;;;;;;;;;;5053247;28;20002;-75
2023/08/13 00:14:31;;;;;;;;;;;;;;;;;;5065341;28;19920;-75
2023/08/13 00:16:58;;;;;;;;;;;;;;;;;;5068465;28;19924;-75
2023/08/13 00:19:23;;;;;;;;;;;;;;;;;;5069228;28;19921;-75
2023/08/13 00:21:49;;;;;;;;;;;;;;;;;;5074201;28;19977;-75
2023/08/13 00:24:15;;;;;;;;;;;;;;;;;;5068579;28;19928;-75
2023/08/13 00:26:42;;;;;;;;;;;;;;;;;;5068369;28;19928;-75
2023/08/13 00:29:08;;;;;;;;;;;;;;;;;;5050153;28;19928;-75
2023/08/13 00:31:33;;;;;;;;;;;;;;;;;;5077839;28;20011;-75
2023/08/13 00:33:59;;;;;;;;;;;;;;;;;;5075272;28;19935;-75
2023/08/13 00:36:25;;;;;;;;;;;;;;;;;;5069612;28;19920;-75
2023/08/13 00:38:51;;;;;;;;;;;;;;;;;;5079968;28;19927;-75
2023/08/13 00:41:17;;;;;;;;;;;;;;;;;;5090589;28;19924;-75
2023/08/13 00:43:43;;;;;;;;;;;;;;;;;;5073173;28;19920;-75
2023/08/13 00:46:09;;;;;;;;;;;;;;;;;;5070236;28;19920;-75
2023/08/13 00:48:35;;;;;;;;;;;;;;;;;;5053981;28;20288;-75
2023/08/13 00:51:01;;;;;;;;;;;;;;;;;;5052692;28;19920;-75
2023/08/13 00:53:27;;;;;;;;;;;;;;;;;;5054721;28;19920;-75
2023/08/13 00:55:53;;;;;;;;;;;;;;;;;;5054637;28;19921;-75
2023/08/13 00:58:19;;;;;;;;;;;;;;;;;;5045880;28;20341;-75
2023/08/13 01:00:46;;;;;;;;;;;;;;;;;;5039737;28;20289;-75
2023/08/13 01:03:12;;;;;;;;;;;;;;;;;;5067422;28;19982;-75
2023/08/13 01:05:38;;;;;;;;;;;;;;;;;;5070563;28;19924;-76
2023/08/13 01:08:04;;;;;;;;;;;;;;;;;;5053795;28;19928;-75
2023/08/13 01:10:30;;;;;;;;;;;;;;;;;;5050060;28;19943;-75
2023/08/13 01:12:56;;;;;;;;;;;;;;;;;;5052956;28;19924;-75
2023/08/13 01:15:22;;;;;;;;;;;;;;;;;;5054386;28;20281;-75
2023/08/13 01:17:48;;;;;;;;;;;;;;;;;;5054990;28;19926;-75
2023/08/13 01:20:15;;;;;;;;;;;;;;;;;;5054085;28;20025;-75
2023/08/13 01:22:41;;;;;;;;;;;;;;;;;;5045919;28;19920;-75
2023/08/13 01:25:07;;;;;;;;;;;;;;;;;;5036695;28;19927;-75
2023/08/13 01:27:33;;;;;;;;;;;;;;;;;;5053965;28;19967;-75
2023/08/13 01:29:59;;;;;;;;;;;;;;;;;;5045234;28;20274;-75
2023/08/13 01:32:25;;;;;;;;;;;;;;;;;;5051831;28;20027;-75
2023/08/13 01:34:51;;;;;;;;;;;;;;;;;;5056645;28;20577;-75
2023/08/13 01:37:17;;;;;;;;;;;;;;;;;;5053751;28;20537;-75
2023/08/13 01:39:42;;;;;;;;;;;;;;;;;;5053992;28;19971;-75
2023/08/13 01:42:11;;;;;;;;;;;;;;;;;;5052334;28;19921;-75
2023/08/13 01:44:37;;;;;;;;;;;;;;;;;;5052303;28;19920;-75
2023/08/13 01:47:04;;;;;;;;;;;;;;;;;;5071509;28;19921;-75
2023/08/13 01:49:30;;;;;;;;;;;;;;;;;;5054341;28;19967;-75
2023/08/13 01:51:56;;;;;;;;;;;;;;;;;;5051125;28;19968;-75
2023/08/13 01:54:22;;;;;;;;;;;;;;;;;;5053669;28;19966;-75
2023/08/13 01:56:48;;;;;;;;;;;;;;;;;;5071472;28;19924;-75
2023/08/13 01:59:14;;;;;;;;;;;;;;;;;;5052392;28;19975;-75
2023/08/13 02:01:40;;;;;;;;;;;;;;;;;;5085219;28;19920;-75
2023/08/13 02:04:06;;;;;;;;;;;;;;;;;;5057751;28;19924;-75
2023/08/13 02:06:35;;;;;;;;;;;;;;;;;;5057437;28;20285;-75
2023/08/13 02:09:00;;;;;;;;;;;;;;;;;;5070781;28;20023;-75
2023/08/13 02:11:26;;;;;;;;;;;;;;;;;;5071092;28;19960;-75
2023/08/13 02:13:52;;;;;;;;;;;;;;;;;;5070305;28;19927;-75
2023/08/13 02:16:18;;;;;;;;;;;;;;;;;;5087790;28;19920;-75
2023/08/13 02:18:44;;;;;;;;;;;;;;;;;;5075311;28;20071;-75
2023/08/13 02:21:10;;;;;;;;;;;;;;;;;;5050298;28;19921;-75
2023/08/13 02:23:36;;;;;;;;;;;;;;;;;;5071491;28;20294;-75
2023/08/13 02:26:02;;;;;;;;;;;;;;;;;;5074646;28;20323;-75
2023/08/13 02:28:28;;;;;;;;;;;;;;;;;;5056920;28;20315;-75
2023/08/13 02:30:54;;;;;;;;;;;;;;;;;;5057425;28;19921;-75
2023/08/13 02:33:20;;;;;;;;;;;;;;;;;;5074839;28;20188;-75
2023/08/13 02:35:46;;;;;;;;;;;;;;;;;;5057787;28;19924;-75
2023/08/13 02:38:12;;;;;;;;;;;;;;;;;;5055060;28;19927;-75
2023/08/13 02:40:38;;;;;;;;;;;;;;;;;;5074902;28;19928;-75
2023/08/13 02:43:04;;;;;;;;;;;;;;;;;;5055862;28;19924;-75
2023/08/13 02:45:29;;;;;;;;;;;;;;;;;;5045365;28;19928;-75
2023/08/13 02:47:56;;;;;;;;;;;;;;;;;;5065901;28;20357;-75
2023/08/13 02:50:22;;;;;;;;;;;;;;;;;;5055873;28;20591;-75
2023/08/13 02:52:48;;;;;;;;;;;;;;;;;;5056001;28;19960;-75
2023/08/13 02:55:14;;;;;;;;;;;;;;;;;;5056414;28;20007;-75
2023/08/13 02:57:40;;;;;;;;;;;;;;;;;;5056258;28;19920;-75
2023/08/13 03:00:06;;;;;;;;;;;;;;;;;;5044169;28;19928;-75
2023/08/13 03:02:32;;;;;;;;;;;;;;;;;;5071092;28;19974;-75
2023/08/13 03:04:58;;;;;;;;;;;;;;;;;;5070569;28;20015;-75
2023/08/13 03:07:24;;;;;;;;;;;;;;;;;;5054441;28;19920;-75
2023/08/13 03:09:50;;;;;;;;;;;;;;;;;;5054446;28;19927;-75
2023/08/13 03:12:16;;;;;;;;;;;;;;;;;;5068735;28;20011;-75
2023/08/13 03:14:42;;;;;;;;;;;;;;;;;;5077921;28;19970;-75
2023/08/13 03:17:08;;;;;;;;;;;;;;;;;;5070072;28;20338;-75
2023/08/13 03:19:34;;;;;;;;;;;;;;;;;;5080592;28;19921;-75
2023/08/13 03:22:00;;;;;;;;;;;;;;;;;;5052942;28;20003;-75
2023/08/13 03:24:26;;;;;;;;;;;;;;;;;;5073615;28;19981;-75
2023/08/13 03:26:51;;;;;;;;;;;;;;;;;;5056300;28;19981;-75
2023/08/13 03:29:17;;;;;;;;;;;;;;;;;;5051316;28;20369;-75
2023/08/13 03:31:43;;;;;;;;;;;;;;;;;;5056664;28;19920;-75
2023/08/13 03:34:09;;;;;;;;;;;;;;;;;;5038358;28;19925;-75
2023/08/13 03:36:35;;;;;;;;;;;;;;;;;;5080909;28;19926;-74
2023/08/13 03:39:01;;;;;;;;;;;;;;;;;;5056495;28;20358;-75
2023/08/13 03:41:27;;;;;;;;;;;;;;;;;;5039743;28;19964;-75
2023/08/13 03:43:53;;;;;;;;;;;;;;;;;;5072238;28;19974;-75
2023/08/13 03:46:19;;;;;;;;;;;;;;;;;;5054991;28;19925;-75
2023/08/13 03:48:45;;;;;;;;;;;;;;;;;;5074131;28;19925;-75
2023/08/13 03:51:11;;;;;;;;;;;;;;;;;;5055509;28;20019;-75
2023/08/13 03:53:37;;;;;;;;;;;;;;;;;;5036052;28;19920;-75
2023/08/13 03:56:03;;;;;;;;;;;;;;;;;;5069732;28;20306;-75
2023/08/13 03:58:31;;;;;;;;;;;;;;;;;;5071320;28;20528;-75
2023/08/13 04:00:57;;;;;;;;;;;;;;;;;;5055603;28;19927;-75
2023/08/13 04:03:23;;;;;;;;;;;;;;;;;;5055131;28;19920;-75
2023/08/13 04:05:49;;;;;;;;;;;;;;;;;;5056221;28;19969;-75
2023/08/13 04:08:15;;;;;;;;;;;;;;;;;;5054187;28;19930;-75
2023/08/13 04:10:41;;;;;;;;;;;;;;;;;;5055873;28;19960;-74
2023/08/13 04:13:07;;;;;;;;;;;;;;;;;;5054958;28;20427;-75
2023/08/13 04:15:33;;;;;;;;;;;;;;;;;;5042501;28;19921;-75
2023/08/13 04:17:59;;;;;;;;;;;;;;;;;;5069470;28;19921;-75
2023/08/13 04:20:24;;;;;;;;;;;;;;;;;;5054056;28;20381;-75
2023/08/13 04:22:50;;;;;;;;;;;;;;;;;;5043508;28;20412;-75
2023/08/13 04:25:16;;;;;;;;;;;;;;;;;;5052875;28;20316;-75
2023/08/13 04:27:42;;;;;;;;;;;;;;;;;;5069171;28;20026;-75
2023/08/13 04:30:08;;;;;;;;;;;;;;;;;;5052960;28;19924;-74
2023/08/13 04:32:34;;;;;;;;;;;;;;;;;;5068549;28;19916;-75
2023/08/13 04:35:00;;;;;;;;;;;;;;;;;;5053492;28;19920;-75
2023/08/13 04:37:26;;;;;;;;;;;;;;;;;;5072632;28;19951;-75
2023/08/13 04:39:52;;;;;;;;;;;;;;;;;;5055352;28;19927;-75
2023/08/13 04:42:18;;;;;;;;;;;;;;;;;;5043147;28;19921;-75
2023/08/13 04:44:44;;;;;;;;;;;;;;;;;;5067345;28;19920;-74
2023/08/13 04:47:10;;;;;;;;;;;;;;;;;;5068616;28;19920;-75
2023/08/13 04:49:36;;;;;;;;;;;;;;;;;;5080631;28;19972;-75
2023/08/13 04:52:02;;;;;;;;;;;;;;;;;;5045646;28;19920;-75
2023/08/13 04:54:28;;;;;;;;;;;;;;;;;;5053892;28;19927;-75
2023/08/13 04:56:53;;;;;;;;;;;;;;;;;;5054390;28;19924;-75
2023/08/13 04:59:19;;;;;;;;;;;;;;;;;;5053390;28;19924;-75
2023/08/13 05:01:45;;;;;;;;;;;;;;;;;;5041125;28;20369;-75
2023/08/13 05:04:12;;;;;;;;;;;;;;;;;;5034661;28;20305;-75
2023/08/13 05:06:38;;;;;;;;;;;;;;;;;;5034607;28;20291;-75
2023/08/13 05:09:04;;;;;;;;;;;;;;;;;;5053470;28;19924;-75
2023/08/13 05:11:30;;;;;;;;;;;;;;;;;;5052778;28;19963;-75
2023/08/13 05:13:55;;;;;;;;;;;;;;;;;;5051207;28;20369;-75
2023/08/13 05:16:21;;;;;;;;;;;;;;;;;;5052100;28;20358;-75
2023/08/13 05:18:47;;;;;;;;;;;;;;;;;;5052509;28;20740;-75
2023/08/13 05:21:14;;;;;;;;;;;;;;;;;;5048862;28;20022;-75
2023/08/13 05:23:40;;;;;;;;;;;;;;;;;;5069666;28;19921;-75
2023/08/13 05:26:06;;;;;;;;;;;;;;;;;;5054038;28;19920;-75
2023/08/13 05:28:32;;;;;;;;;;;;;;;;;;5053193;28;20270;-75
2023/08/13 05:30:58;;;;;;;;;;;;;;;;;;5036955;28;19924;-75
2023/08/13 05:33:24;;;;;;;;;;;;;;;;;;5067806;28;19927;-75
2023/08/13 05:35:50;;;;;;;;;;;;;;;;;;5067209;28;20033;-75
2023/08/13 05:38:16;;;;;;;;;;;;;;;;;;5084257;28;19924;-75
2023/08/13 05:40:42;;;;;;;;;;;;;;;;;;5053997;28;19973;-75
2023/08/13 05:43:08;;;;;;;;;;;;;;;;;;5036487;28;19920;-75
2023/08/13 05:45:34;;;;;;;;;;;;;;;;;;5067043;28;19971;-75
2023/08/13 05:48:00;;;;;;;;;;;;;;;;;;5068010;28;19964;-75
2023/08/13 05:50:26;;;;;;;;;;;;;;;;;;5067325;28;20015;-75
2023/08/13 05:52:52;;;;;;;;;;;;;;;;;;5067486;28;19920;-75
2023/08/13 05:55:18;;;;;;;;;;;;;;;;;;5057143;28;20266;-75
2023/08/13 05:57:44;;;;;;;;;;;;;;;;;;5066945;28;20109;-75
2023/08/13 06:00:10;;;;;;;;;;;;;;;;;;5066937;28;19921;-75
2023/08/13 06:02:36;;;;;;;;;;;;;;;;;;5052625;28;20449;-75
2023/08/13 06:05:02;;;;;;;;;;;;;;;;;;5054487;28;19927;-75
2023/08/13 06:07:28;;;;;;;;;;;;;;;;;;5053412;28;19959;-75
2023/08/13 06:09:54;;;;;;;;;;;;;;;;;;5037629;28;19920;-75
2023/08/13 06:12:20;;;;;;;;;;;;;;;;;;5049735;28;19928;-75
2023/08/13 06:14:46;;;;;;;;;;;;;;;;;;5081098;28;19920;-75
2023/08/13 06:17:12;;;;;;;;;;;;;;;;;;5051417;28;20015;-75
2023/08/13 06:19:38;;;;;;;;;;;;;;;;;;5083745;28;19921;-75
2023/08/13 06:22:04;;;;;;;;;;;;;;;;;;5071630;28;19921;-75
2023/08/13 06:24:30;;;;;;;;;;;;;;;;;;5082812;28;19975;-75
2023/08/13 06:26:55;;;;;;;;;;;;;;;;;;5051180;28;20240;-75
2023/08/13 06:29:21;;;;;;;;;;;;;;;;;;5066443;28;19982;-75
2023/08/13 06:31:48;;;;;;;;;;;;;;;;;;5083866;28;19928;-75
2023/08/13 06:34:15;;;;;;;;;;;;;;;;;;5083161;28;19921;-75
2023/08/13 06:36:41;;;;;;;;;;;;;;;;;;5038773;28;20393;-75
2023/08/13 06:39:06;;;;;;;;;;;;;;;;;;5064301;28;20385;-75
2023/08/13 06:41:32;;;;;;;;;;;;;;;;;;5050974;28;19947;-75
2023/08/13 06:43:58;;;;;;;;;;;;;;;;;;5066291;28;19920;-75
2023/08/13 06:46:24;;;;;;;;;;;;;;;;;;5087142;28;19970;-75
2023/08/13 06:48:50;;;;;;;;;;;;;;;;;;5085731;28;19928;-75
2023/08/13 06:51:16;;;;;;;;;;;;;;;;;;5086353;28;19928;-75
2023/08/13 06:53:42;;;;;;;;;;;;;;;;;;5050380;28;19928;-75
2023/08/13 06:56:08;;;;;;;;;;;;;;;;;;5042678;28;20007;-75
2023/08/13 06:58:34;;;;;;;;;;;;;;;;;;5046681;28;19928;-75
2023/08/13 07:01:00;;;;;;;;;;;;;;;;;;5053332;28;19921;-75
2023/08/13 07:03:26;;;;;;;;;;;;;;;;;;5054850;28;19960;-75
2023/08/13 07:05:52;;;;;;;;;;;;;;;;;;5086760;28;20595;-75
2023/08/13 07:08:18;;;;;;;;;;;;;;;;;;5054706;28;20271;-75
2023/08/13 07:10:44;;;;;;;;;;;;;;;;;;5055519;28;19921;-75
2023/08/13 07:13:10;;;;;;;;;;;;;;;;;;5073309;28;20365;-74
2023/08/13 07:15:36;;;;;;;;;;;;;;;;;;5055274;28;20327;-75
2023/08/13 07:18:02;;;;;;;;;;;;;;;;;;5040350;28;20039;-65
2023/08/13 07:20:28;;;;;;;;;;;;;;;;;;5072249;28;19920;-69
2023/08/13 07:22:58;;;;;;;;;;;;;;;;;;5055344;28;19921;-68
2023/08/13 07:25:24;;;;;;;;;;;;;;;;;;5074199;28;19920;-70
2023/08/13 07:27:50;;;;;;;;;;;;;;;;;;5073343;28;19965;-72
2023/08/13 07:30:16;;;;;;;;;;;;;;;;;;5055886;28;19966;-67
2023/08/13 07:32:42;;;;;;;;;;;;;;;;;;5070989;28;19921;-65
2023/08/13 07:35:10;;;;;;;;;;;;;;;;;;5071233;28;20361;-75
2023/08/13 07:37:36;;;;;;;;;;;;;;;;;;5044267;28;19967;-75
2023/08/13 07:40:04;;;;;;;;;;;;;;;;;;5048073;28;19922;-75
2023/08/13 07:42:33;;;;;;;;;;;;;;;;;;5081402;28;19983;-76
2023/08/13 07:44:59;;;;;;;;;;;;;;;;;;5054686;28;19920;-75
2023/08/13 07:47:25;;;;;;;;;;;;;;;;;;5056539;28;20358;-75
2023/08/13 07:49:51;;;;;;;;;;;;;;;;;;5040428;28;19982;-75
2023/08/13 07:52:17;;;;;;;;;;;;;;;;;;5069484;28;19921;-75
2023/08/13 07:54:43;;;;;;;;;;;;;;;;;;5069052;28;19924;-76
2023/08/13 07:57:09;;;;;;;;;;;;;;;;;;5075816;28;19973;-75
2023/08/13 07:59:35;;;;;;;;;;;;;;;;;;5046222;28;19924;-76
2023/08/13 08:02:03;;;;;;;;;;;;;;;;;;5048899;28;19930;-75
2023/08/13 08:04:29;;;;;;;;;;;;;;;;;;5069242;28;19927;-75
2023/08/13 08:06:55;;;;;;;;;;;;;;;;;;5072078;28;19924;-76
2023/08/13 08:09:21;;;;;;;;;;;;;;;;;;5053854;28;19920;-75
2023/08/13 08:11:47;;;;;;;;;;;;;;;;;;5052899;28;19974;-76
2023/08/13 08:14:13;;;;;;;;;;;;;;;;;;5046707;28;20003;-76
2023/08/13 08:16:38;;;;;;;;;;;;;;;;;;5074964;28;20285;-76
2023/08/13 08:19:04;;;;;;;;;;;;;;;;;;5063382;28;19921;-76
2023/08/13 08:21:31;;;;;;;;;;;;;;;;;;5079943;28;20385;-75
2023/08/13 08:23:57;;;;;;;;;;;;;;;;;;5084358;28;20396;-75
2023/08/13 08:26:23;;;;;;;;;;;;;;;;;;5083835;28;19920;-76
2023/08/13 08:28:49;;;;;;;;;;;;;;;;;;5069708;28;19920;-78
2023/08/13 08:31:15;;;;;;;;;;;;;;;;;;5070860;28;19924;-77
2023/08/13 08:33:41;;;;;;;;;;;;;;;;;;5059194;28;19924;-78
2023/08/13 08:36:07;;;;;;;;;;;;;;;;;;5070163;28;19924;-77
2023/08/13 08:38:33;;;;;;;;;;;;;;;;;;5049998;28;19932;-77
2023/08/13 08:40:59;;;;;;;;;;;;;;;;;;5066804;28;19921;-77
2023/08/13 08:43:25;;;;;;;;;;;;;;;;;;5068606;28;19924;-77
2023/08/13 08:45:51;;;;;;;;;;;;;;;;;;5042329;28;20360;-77
2023/08/13 08:48:17;;;;;;;;;;;;;;;;;;5070915;28;19986;-77
2023/08/13 08:50:44;;;;;;;;;;;;;;;;;;5067554;28;20362;-77
2023/08/13 08:53:10;;;;;;;;;;;;;;;;;;5084212;28;19974;-77
2023/08/13 08:55:36;;;;;;;;;;;;;;;;;;5102743;28;19928;-80
2023/08/13 08:58:02;;;;;;;;;;;;;;;;;;5058608;28;19920;-76
2023/08/13 09:00:28;;;;;;;;;;;;;;;;;;5065301;28;19942;-76
2023/08/13 09:02:54;;;;;;;;;;;;;;;;;;5084646;28;19920;-76
2023/08/13 09:05:20;;;;;;;;;;;;;;;;;;5097815;28;19927;-76
2023/08/13 09:07:45;;;;;;;;;;;;;;;;;;5066409;28;19929;-76
2023/08/13 09:10:11;;;;;;;;;;;;;;;;;;5079872;28;19927;-76
2023/08/13 09:12:37;;;;;;;;;;;;;;;;;;5070507;28;20377;-76
2023/08/13 09:15:03;;;;;;;;;;;;;;;;;;5052849;28;19963;-76
2023/08/13 09:17:29;;;;;;;;;;;;;;;;;;5071531;28;19920;-76
2023/08/13 09:19:55;;;;;;;;;;;;;;;;;;5064850;28;19935;-75
2023/08/13 09:22:21;;;;;;;;;;;;;;;;;;5044316;28;19924;-78
2023/08/13 09:24:48;;;;;;;;;;;;;;;;;;5076305;28;19921;-78
2023/08/13 09:27:14;;;;;;;;;;;;;;;;;;5094429;28;19927;-77
2023/08/13 09:29:40;;;;;;;;;;;;;;;;;;5069542;28;19920;-78
2023/08/13 09:32:06;;;;;;;;;;;;;;;;;;5070280;28;19928;-77
2023/08/13 09:34:35;;;;;;;;;;;;;;;;;;5070310;28;19959;-77
2023/08/13 09:37:01;;;;;;;;;;;;;;;;;;5052123;28;20404;-78
2023/08/13 09:39:27;;;;;;;;;;;;;;;;;;5070377;28;19920;-78
2023/08/13 09:41:53;;;;;;;;;;;;;;;;;;5052620;28;19985;-78
2023/08/13 09:44:19;;;;;;;;;;;;;;;;;;5068032;28;20381;-77
2023/08/13 09:46:45;;;;;;;;;;;;;;;;;;5068432;28;19924;-78
2023/08/13 09:49:11;;;;;;;;;;;;;;;;;;5069619;28;20178;-78
2023/08/13 09:51:37;;;;;;;;;;;;;;;;;;5056252;28;19946;-78
2023/08/13 09:54:04;;;;;;;;;;;;;;;;;;5082360;28;20353;-77
2023/08/13 09:56:30;;;;;;;;;;;;;;;;;;5090024;28;20353;-78
2023/08/13 09:58:56;;;;;;;;;;;;;;;;;;5035056;28;19932;-77
2023/08/13 10:01:22;;;;;;;;;;;;;;;;;;5057594;28;19921;-77
2023/08/13 10:03:48;;;;;;;;;;;;;;;;;;5052797;28;20323;-77
2023/08/13 10:06:14;;;;;;;;;;;;;;;;;;5054611;28;19928;-78
2023/08/13 10:08:40;;;;;;;;;;;;;;;;;;5094101;28;19920;-74
2023/08/13 10:11:06;;;;;;;;;;;;;;;;;;5082066;28;19921;-75
2023/08/13 10:13:32;;;;;;;;;;;;;;;;;;5092652;28;19921;-75
2023/08/13 10:15:58;;;;;;;;;;;;;;;;;;5053137;28;19971;-76
2023/08/13 10:18:25;;;;;;;;;;;;;;;;;;5070671;28;19970;-74
2023/08/13 10:20:51;;;;;;;;;;;;;;;;;;5073573;28;20361;-75
2023/08/13 10:23:18;;;;;;;;;;;;;;;;;;5073660;28;19973;-75
2023/08/13 10:25:44;;;;;;;;;;;;;;;;;;5057469;28;20000;-74
2023/08/13 10:28:10;;;;;;;;;;;;;;;;;;5065278;28;19964;-75
2023/08/13 10:30:36;;;;;;;;;;;;;;;;;;5099128;28;20011;-76
2023/08/13 10:33:02;;;;;;;;;;;;;;;;;;5065317;28;19921;-74
2023/08/13 10:35:28;;;;;;;;;;;;;;;;;;5055314;28;19971;-76
2023/08/13 10:37:54;;;;;;;;;;;;;;;;;;5084165;28;19921;-75
2023/08/13 10:40:20;;;;;;;;;;;;;;;;;;5087355;28;19921;-75
2023/08/13 10:42:46;;;;;;;;;;;;;;;;;;5055479;28;20718;-76
2023/08/13 10:45:12;;;;;;;;;;;;;;;;;;5071779;28;19926;-75
2023/08/13 10:47:38;;;;;;;;;;;;;;;;;;5075125;28;20003;-75
2023/08/13 10:50:04;;;;;;;;;;;;;;;;;;5073277;28;20365;-75
2023/08/13 10:52:30;;;;;;;;;;;;;;;;;;5047898;28;20321;-76
2023/08/13 10:56:53;;;;;;;4.90;1.50;;;;;;;;;;5099046;27;1966367;-79
2023/08/13 10:59:19;;;;;;;3.88;1.30;;;;;;;;;;5133487;27;20039;-78
2023/08/13 11:02:04;;;;;;;6.07;1.40;;;;;;;;;;5149803;27;20051;-79
2023/08/13 11:04:31;;;;;;;7.03;1.40;;;;;;;;;;5113301;28;20043;-78
2023/08/13 11:06:58;;;;;;;2.55;1.05;;;;;;;;;;5124848;27;20051;-78
2023/08/13 11:09:25;;;;;;;4.85;1.48;;;;;;;;;;5131090;27;20051;-78
2023/08/13 11:11:51;;;;;;;6.88;1.27;;;;;;;;;;5148984;27;20050;-78
2023/08/13 11:14:17;;;;;;;4.25;1.00;;;;;;;;;;5130245;27;20035;-78
2023/08/13 11:16:43;;;;;;;6.53;1.30;;;;;;;;;;5130975;27;20528;-78
2023/08/13 11:19:09;;;;;;;1.98;1.02;;;;;;;;;;5130325;27;20067;-78
2023/08/13 11:21:35;;;;;;;5.75;1.23;;;;;;;;;;5124997;27;20079;-78
2023/08/13 11:24:02;;;;;;;6.25;1.33;;;;;;;;;;5131043;27;20054;-78
2023/08/13 11:26:29;;;;;;;6.45;1.50;;;;;;;;;;5131170;27;20118;-78
2023/08/13 11:28:57;;;;;;;5.38;1.38;;;;;;;;;;5130341;27;20051;-78
2023/08/13 11:31:23;;;;;;;5.93;1.42;;;;;;;;;;5113389;27;20042;-78
2023/08/13 11:33:49;;;;;;;6.05;1.20;;;;;;;;;;5131041;27;20042;-78
2023/08/13 11:36:16;;;;;;;5.05;1.48;;;;;;;;;;5104495;27;20126;-78
2023/08/13 11:38:42;;;;;;;8.35;1.63;;;;;;;;;;5130624;27;20043;-78
2023/08/13 11:41:14;;;;;;;7.65;1.42;;;;;;;;;;5147701;27;20058;-78
2023/08/13 11:43:40;;;;;;;4.22;1.40;;;;;;;;;;5124838;27;20046;-77
2023/08/13 11:46:06;;;;;;;3.05;1.10;;;;;;;;;;5115582;28;20043;-77
2023/08/13 11:48:33;;;;;;;6.07;1.83;;;;;;;;;;5127624;27;20043;-77
2023/08/13 11:51:24;;;;;;;6.00;1.60;;;;;;;;;;5102592;28;20043;-78
2023/08/13 11:53:50;;;;;;;4.43;1.42;;;;;;;;;;5119132;27;20043;-78
2023/08/13 11:56:17;;;;;;;3.47;1.52;;;;;;;;;;5113500;27;20188;-78
2023/08/13 11:58:44;;;;;;;7.30;1.50;;;;;;;;;;5118983;27;20103;-77
2023/08/13 12:01:11;;;;;;;6.45;1.83;;;;;;;;;;5130124;27;20051;-78
2023/08/13 12:03:37;;;;;;;5.20;1.60;;;;;;;;;;5112968;27;20043;-77
2023/08/13 12:06:05;;;;;;;6.85;1.80;;;;;;;;;;5129734;27;20051;-78
2023/08/13 12:08:31;;;;;;;4.72;1.75;;;;;;;;;;5116208;27;20091;-78
2023/08/13 12:10:57;;;;;;;6.85;1.88;;;;;;;;;;5117317;27;20050;-78
2023/08/13 12:13:24;;;;;;;11.25;2.40;;;;;;;;;;5116061;27;20449;-78
2023/08/13 12:15:50;;;;;;;6.00;1.92;;;;;;;;;;5115398;27;20088;-78
2023/08/13 12:18:16;;;;;;;8.35;2.30;;;;;;;;;;5116479;27;20043;-77
2023/08/13 12:20:42;;;;;;;7.53;2.17;;;;;;;;;;5117100;27;20054;-77
2023/08/13 12:23:09;;;;;;;10.75;2.20;;;;;;;;;;5116842;27;20131;-77
2023/08/13 12:25:35;;;;;;;8.18;2.08;;;;;;;;;;5098896;27;20073;-78
2023/08/13 12:28:01;;;;;;;11.07;2.75;;;;;;;;;;5105951;27;20057;-77
2023/08/13 12:30:27;;;;;;;9.90;2.42;;;;;;;;;;5103186;27;20043;-77
2023/08/13 12:32:55;;;;;;;9.50;2.30;;;;;;;;;;5119921;27;20046;-77
2023/08/13 12:35:24;;;;;;;9.27;1.90;;;;;;;;;;5104995;27;20076;-78
2023/08/13 12:37:50;;;;;;;10.15;2.72;;;;;;;;;;5105689;27;20036;-77
2023/08/13 12:40:17;;;;;;;13.68;2.50;;;;;;;;;;5105573;27;20073;-77
2023/08/13 12:42:43;;;;;;;9.57;1.83;;;;;;;;;;5098914;28;20078;-77
2023/08/13 12:45:09;;;;;;;11.27;2.40;;;;;;;;;;5100823;27;20054;-74
2023/08/13 12:47:36;;;;;;;9.32;2.40;;;;;;;;;;5116597;27;20047;-74
2023/08/13 12:50:06;;;;;;;10.23;2.10;;;;;;;;;;5113526;27;20122;-74
2023/08/13 12:52:33;;;;;;;10.27;2.42;;;;;;;;;;5103698;27;20119;-81
2023/08/13 12:54:59;;;;;;;8.43;2.40;;;;;;;;;;5088719;27;20500;-75
2023/08/13 12:57:25;;;;;;;9.25;2.42;;;;;;;;;;5106129;27;20079;-75
2023/08/13 12:59:51;;;;;;;7.35;2.10;;;;;;;;;;5105872;27;20126;-75
2023/08/13 13:02:18;;;;;;;8.82;2.30;;;;;;;;;;5123438;27;20040;-72
2023/08/13 13:04:44;;;;;;;10.38;1.95;;;;;;;;;;5125643;27;20135;-69
2023/08/13 13:07:10;;;;;;;6.63;1.85;;;;;;;;;;5124593;27;20439;-70
2023/08/13 13:09:36;;;;;;;9.27;1.85;;;;;;;;;;5126632;27;20103;-69
2023/08/13 13:12:02;;;;;;;11.57;2.55;;;;;;;;;;5122322;27;20058;-70
2023/08/13 13:14:28;;;;;;;7.72;2.03;;;;;;;;;;5130816;27;20365;-70
2023/08/13 13:16:55;;;;;;;10.23;1.85;;;;;;;;;;5110014;27;20039;-69
2023/08/13 13:19:21;;;;;;;9.10;2.50;;;;;;;;;;5120699;27;20127;-69
2023/08/13 13:21:48;;;;;;;8.57;2.28;;;;;;;;;;5122961;27;20079;-69
2023/08/13 13:24:14;;;;;;;9.00;2.28;;;;;;;;;;5123281;27;20100;-70
2023/08/13 13:26:40;;;;;;;9.40;2.20;;;;;;;;;;5119814;27;20047;-71
2023/08/13 13:29:06;;;;;;;13.02;2.20;;;;;;;;;;5107169;27;20123;-70
2023/08/13 13:31:32;;;;;;;8.95;2.13;;;;;;;;;;5101337;27;20046;-69
2023/08/13 13:33:58;;;;;;;12.00;2.40;;;;;;;;;;5105238;27;20532;-69
2023/08/13 13:36:24;;;;;;;9.18;2.35;;;;;;;;;;5121889;27;20135;-69
2023/08/13 13:38:50;;;;;;;12.98;2.42;;;;;;;;;;5089246;27;20044;-69
2023/08/13 13:41:16;;;;;;;7.82;2.20;;;;;;;;;;5123541;27;20043;-69
2023/08/13 13:43:42;;;;;;;9.25;2.40;;;;;;;;;;5124224;27;20062;-69
2023/08/13 13:46:08;;;;;;;12.35;2.42;;;;;;;;;;5121364;27;20499;-69
2023/08/13 13:48:34;;;;;;;7.78;2.33;;;;;;;;;;5103645;27;20374;-69
2023/08/13 13:51:00;;;;;;;7.88;2.25;;;;;;;;;;5123444;27;20055;-69
2023/08/13 13:53:27;;;;;;;6.97;2.00;;;;;;;;;;5123014;27;20039;-70
2023/08/13 13:55:53;;;;;;;5.82;1.95;;;;;;;;;;5129458;27;20062;-68
2023/08/13 13:58:19;;;;;;;8.95;2.17;;;;;;;;;;5127918;27;20055;-68
2023/08/13 14:00:48;;;;;;;9.77;2.20;;;;;;;;;;5119110;27;20039;-68
2023/08/13 14:03:14;;;;;;;10.80;2.40;;;;;;;;;;5114062;27;20137;-70
2023/08/13 14:05:40;;;;;;;7.40;1.95;;;;;;;;;;5140388;27;20231;-70
2023/08/13 14:08:06;;;;;;;7.22;2.05;;;;;;;;;;5116276;27;20055;-68
2023/08/13 14:10:33;;;;;;;10.40;2.13;;;;;;;;;;5129983;27;20045;-69
2023/08/13 14:12:59;;;;;;;7.82;1.90;;;;;;;;;;5112634;27;20701;-68
2023/08/13 14:15:25;;;;;;;8.05;1.80;;;;;;;;;;5124963;27;20047;-69
2023/08/13 14:17:51;;;;;;;8.40;2.22;;;;;;;;;;5112260;27;20047;-69
2023/08/13 14:20:17;;;;;;;11.05;2.50;;;;;;;;;;5132540;27;20054;-68
2023/08/13 14:22:43;;;;;;;9.90;1.83;;;;;;;;;;5130736;27;20047;-68
2023/08/13 14:25:10;;;;;;;7.35;1.83;;;;;;;;;;5131684;27;20046;-69
2023/08/13 14:27:36;;;;;;;7.82;2.40;;;;;;;;;;5128368;27;20047;-69
2023/08/13 14:30:02;;;;;;;9.55;2.10;;;;;;;;;;5129777;27;20039;-69
2023/08/13 14:32:28;;;;;;;7.72;2.20;;;;;;;;;;5128473;27;20080;-69
2023/08/13 14:34:54;;;;;;;7.07;2.10;;;;;;;;;;5102562;28;20043;-70
2023/08/13 14:37:20;;;;;;;8.40;2.13;;;;;;;;;;5131144;27;20039;-69
2023/08/13 14:39:46;;;;;;;5.53;2.00;;;;;;;;;;5112249;27;20058;-68
2023/08/13 14:42:13;;;;;;;7.68;1.88;;;;;;;;;;5130873;27;20421;-70
2023/08/13 14:44:39;;;;;;;11.85;2.30;;;;;;;;;;5121621;27;20043;-68
2023/08/13 14:47:05;;;;;;;11.20;2.22;;;;;;;;;;5130396;27;20279;-68
2023/08/13 14:49:31;;;;;;;7.60;1.90;;;;;;;;;;5131441;27;20051;-68
2023/08/13 14:51:57;;;;;;;12.50;2.40;;;;;;;;;;5106694;28;20384;-69
2023/08/13 14:54:23;;;;;;;9.73;2.30;;;;;;;;;;5131271;28;20074;-70
2023/08/13 14:56:49;;;;;;;6.13;1.95;;;;;;;;;;5111325;28;20062;-68
2023/08/13 14:59:15;;;;;;;7.22;1.90;;;;;;;;;;5130653;27;20625;-69
2023/08/13 15:01:44;;;;;;;12.38;2.45;;;;;;;;;;5124813;28;20051;-69
2023/08/13 15:04:10;;;;;;;8.95;2.30;;;;;;;;;;5111464;28;20052;-67
2023/08/13 15:06:36;;;;;;;11.63;2.35;;;;;;;;;;5110716;28;20032;-68
2023/08/13 15:09:03;;;;;;;10.10;2.08;;;;;;;;;;5126168;28;20074;-68
2023/08/13 15:11:29;;;;;;;7.95;2.20;;;;;;;;;;5128858;28;20044;-69
2023/08/13 15:13:55;;;;;;;4.47;1.65;;;;;;;;;;5125944;28;20096;-68
2023/08/13 15:16:21;;;;;;;7.55;2.30;;;;;;;;;;5131197;28;20032;-68
2023/08/13 15:18:47;;;;;;;7.95;2.25;;;;;;;;;;5112420;28;20396;-69
2023/08/13 15:21:13;;;;;;;8.73;2.20;;;;;;;;;;5111135;28;20446;-68
2023/08/13 15:23:40;;;;;;;8.00;2.15;;;;;;;;;;5114570;28;20131;-68
2023/08/13 15:26:06;;;;;;;8.35;2.53;;;;;;;;;;5123899;28;20047;-68
2023/08/13 15:28:32;;;;;;;9.18;2.00;;;;;;;;;;5112219;28;20043;-69
2023/08/13 15:31:00;;;;;;;8.25;1.63;;;;;;;;;;5125145;28;20043;-69
2023/08/13 15:33:26;;;;;;;7.15;2.20;;;;;;;;;;5131345;28;20099;-68
2023/08/13 15:35:53;;;;;;;10.32;2.30;;;;;;;;;;5130107;28;20043;-68
2023/08/13 15:38:19;;;;;;;11.75;2.20;;;;;;;;;;5131439;28;20059;-68
2023/08/13 15:40:45;;;;;;;10.07;2.28;;;;;;;;;;5130543;27;20103;-68
2023/08/13 15:43:11;;;;;;;11.20;2.15;;;;;;;;;;5133327;27;20565;-67
2023/08/13 15:45:37;;;;;;;11.93;2.30;;;;;;;;;;5125918;27;20051;-68
2023/08/13 15:48:04;;;;;;;9.18;2.10;;;;;;;;;;5117660;27;20062;-68
2023/08/13 15:50:30;;;;;;;9.57;2.20;;;;;;;;;;5135905;27;20050;-69
2023/08/13 15:52:56;;;;;;;6.85;1.80;;;;;;;;;;5135170;27;20039;-70
2023/08/13 15:55:22;;;;;;;9.23;1.85;;;;;;;;;;5134948;27;20046;-73
2023/08/13 15:57:48;;;;;;;8.40;1.70;;;;;;;;;;5116459;27;20513;-73